Data for 09/10/2006

Time Sea-Level Adjusted Pressure Absolute Pressure Temperature Relative Humidity Dew Point   
(mb) (inHg) (mb) (inHg) (C) (F) (%) (C) (F)
00:05 1018 30.06 847 25.01 16.1 61 53 6.6 43.9
00:10 1018 30.06 847 25.01 16.2 61.2 54 6.9 44.3
00:15 1018 30.06 847 25.01 16.1 61 55 7.2 44.9
00:20 1018 30.06 847 25.01 16 60.8 56 7.2 44.9
00:25 1018 30.06 847 25.01 15.9 60.5 56 7.1 44.8
00:30 1018 30.06 847 25.01 15.7 60.3 55 6.9 44.4
00:35 1018 30.06 847 25.01 15.8 60.4 56 7 44.7
00:40 1018 30.06 847 25.01 15.8 60.4 55 7 44.5
00:45 1018 30.06 847 25.01 15.8 60.4 59 7.9 46.2
00:50 1018 30.06 847 25.01 15.7 60.2 57 7.2 45
00:55 1018 30.06 847 25.01 15.6 60 58 7.3 45.1
01:00 1018 30.06 847 25.01 15.4 59.8 58 7.3 45.1
01:05 1018 30.06 847 25.01 15.4 59.7 59 7.6 45.7
01:10 1018 30.06 847 25.01 15.4 59.8 58 7.4 45.3
01:15 1018 30.06 847 25.01 15.4 59.6 62 8.1 46.6
01:20 1018 30.06 847 25.01 15.3 59.6 59 7.3 45.2
01:25 1018 30.06 847 25.01 15.3 59.6 59 7.3 45.2
01:30 1018 30.06 847 25.01 15.6 60 59 7.7 45.9
01:35 1018 30.06 847 25.01 15.5 59.9 58 7.3 45.1
01:40 1018 30.06 847 25.01 15.4 59.7 61 7.9 46.2
01:45 1018 30.06 847 25.01 15.2 59.4 61 7.8 46.1
01:50 1018 30.06 847 25.01 14.9 58.8 62 7.7 45.8
01:55 1018 30.06 847 25.01 14.7 58.5 61 7.4 45.3
02:00 1018 30.06 847 25.01 14.5 58.1 63 7.6 45.6
02:05 1018 30.06 847 25.01 14.3 57.8 63 7.6 45.6
02:10 1018 30.06 847 25.01 14.3 57.7 62 7.2 45
02:15 1018 30.06 847 25.01 14.6 58.3 64 7.9 46.2
02:20 1018 30.06 847 25.01 14.3 57.8 63 7.5 45.4
02:25 1018 30.06 847 25.01 14.3 57.7 63 7.4 45.4
02:30 1018 30.06 847 25.01 14 57.3 64 7.5 45.5
02:35 1018 30.06 847 25.01 13.8 56.9 64 7.2 45
02:40 1018 30.06 847 25.01 13.8 56.8 65 7.3 45.1
02:45 1018 30.06 847 25.01 13.3 55.9 67 7.3 45.1
02:50 1018 30.06 847 25.01 13.3 55.9 67 7.4 45.4
02:55 1018 30.06 847 25.01 13.2 55.7 69 7.6 45.7
03:00 1018 30.06 847 25.01 12.9 55.2 70 7.6 45.6
03:05 1018 30.06 847 25.01 12.6 54.6 71 7.5 45.6
03:10 1018 30.06 847 25.01 12.3 54.1 73 7.6 45.7
03:15 1018 30.06 847 25.01 12.1 53.7 73 7.5 45.4
03:20 1018 30.06 847 25.01 12 53.6 74 7.5 45.5
03:25 1018 30.06 847 25.01 11.9 53.4 75 7.5 45.6
03:30 1018 30.06 847 25.01 11.8 53.3 72 7.1 44.7
03:35 1018 30.06 847 25.01 12.1 53.7 69 6.6 43.9
03:40 1018 30.06 847 25.01 12.1 53.9 68 6.5 43.6
03:45 1018 30.06 847 25.01 12 53.5 69 6.6 43.8
03:50 1018 30.06 847 25.01 11.8 53.2 71 6.7 44
03:55 1018 30.06 847 25.01 11.5 52.7 73 6.8 44.2
04:00 1018 30.06 848 25.04 11.2 52.2 74 6.8 44.2
04:05 1018 30.06 848 25.04 11.1 51.9 73 6.4 43.5
04:10 1018 30.06 848 25.04 11.2 52.1 71 6.1 42.9
04:15 1018 30.06 848 25.04 11.3 52.3 71 6.2 43.2
04:20 1018 30.06 848 25.04 11.2 52.2 73 6.5 43.7
04:25 1018 30.06 848 25.04 11 51.7 74 6.5 43.6
04:30 1018 30.06 848 25.04 11.1 52 69 5.6 42.1
04:35 1018 30.06 848 25.04 11.9 53.4 67 6.1 42.9
04:40 1019 30.09 848 25.04 11.7 53 70 6.4 43.4
04:45 1019 30.09 848 25.04 11.3 52.3 71 6.3 43.4
04:50 1019 30.09 848 25.04 11.1 52 73 6.5 43.6
04:55 1019 30.09 848 25.04 11 51.7 74 6.5 43.7
05:00 1019 30.09 848 25.04 11 51.7 73 6.4 43.6
05:05 1019 30.09 848 25.04 11 51.7 74 6.5 43.8
05:10 1019 30.09 848 25.04 10.9 51.7 74 6.5 43.7
05:15 1019 30.09 848 25.04 10.7 51.2 75 6.4 43.6
05:20 1019 30.09 848 25.04 10.3 50.5 75 6.1 43
05:25 1019 30.09 848 25.04 10.3 50.5 73 5.7 42.3
05:30 1019 30.09 848 25.04 10.5 50.9 71 5.5 42
05:35 1019 30.09 848 25.04 10.7 51.2 69 5.3 41.5
05:40 1019 30.09 848 25.04 10.7 51.3 69 5.3 41.6
05:45 1019 30.09 848 25.04 10.5 50.9 69 5.2 41.3
05:50 1019 30.09 848 25.04 10.2 50.4 70 5.1 41.1
05:55 1019 30.09 848 25.04 10.2 50.3 70 5 41
06:00 1019 30.09 848 25.04 10 50 70 4.9 40.8
06:05 1019 30.09 848 25.04 10 49.9 71 4.9 40.8
06:10 1019 30.09 848 25.04 10 50 69 4.7 40.5
06:15 1019 30.09 848 25.04 10.3 50.6 68 4.7 40.4
06:20 1019 30.09 848 25.04 10.6 51 68 4.9 40.9
06:25 1019 30.09 848 25.04 10.4 50.7 71 5.3 41.5
06:30 1019 30.09 848 25.04 10.2 50.4 72 5.3 41.6
06:35 1019 30.09 848 25.04 10.1 50.1 73 5.4 41.7
06:40 1019 30.09 848 25.04 10.1 50.2 71 5.2 41.3
06:45 1019 30.09 848 25.04 10.4 50.7 70 5.2 41.4
06:50 1019 30.09 848 25.04 10.5 50.8 67 4.7 40.5
06:55 1019 30.09 848 25.04 10.6 51.1 68 4.9 40.9
07:00 1019 30.09 848 25.04 10.5 50.8 69 5.2 41.3
07:05 1019 30.09 848 25.04 10.5 50.9 69 5.1 41.1
07:10 1019 30.09 848 25.04 10.5 50.9 67 4.6 40.4
07:15 1019 30.09 848 25.04 10.2 50.4 68 4.7 40.4
07:20 1019 30.09 848 25.04 9.9 49.9 69 4.5 40.1
07:25 1019 30.09 848 25.04 10.2 50.3 68 4.6 40.3
07:30 1019 30.09 849 25.07 9.9 49.7 70 4.7 40.5
07:35 1019 30.09 849 25.07 9.8 49.7 69 4.4 39.8
07:40 1019 30.09 849 25.07 10.3 50.5 67 4.6 40.2
07:45 1019 30.09 849 25.07 10.3 50.6 68 4.7 40.5
07:50 1019 30.09 848 25.04 10.7 51.2 69 5.2 41.4
07:55 1019 30.09 848 25.04 10.6 51 71 5.6 42
08:00 1019 30.09 848 25.04 10.5 50.9 71 5.5 42
08:05 1019 30.09 849 25.07 10.6 51.1 71 5.5 41.9
08:10 1019 30.09 849 25.07 10.7 51.2 71 5.6 42
08:15 1020 30.12 849 25.07 11 51.8 68 5.4 41.6
08:20 1020 30.12 849 25.07 11.3 52.4 66 5.3 41.5
08:25 1020 30.12 849 25.07 11.5 52.7 65 5.2 41.3
08:30 1020 30.12 849 25.07 11.7 53 64 5.2 41.3
08:35 1020 30.12 849 25.07 12 53.6 63 5.3 41.6
08:40 1020 30.12 849 25.07 12.3 54.1 63 5.5 41.9
08:45 1020 30.12 849 25.07 12.6 54.8 62 5.6 42.1
08:50 1020 30.12 849 25.07 12.9 55.1 61 5.6 42.1
08:55 1020 30.12 849 25.07 13 55.5 61 5.7 42.2
09:00 1020 30.12 849 25.07 13.2 55.8 62 6.1 43
09:05 1020 30.12 849 25.07 13.6 56.5 59 5.8 42.5
09:10 1020 30.12 849 25.07 14.3 57.8 57 6.1 42.9
09:15 1020 30.12 849 25.07 15.3 59.6 52 5.7 42.3
09:20 1020 30.12 849 25.07 15.5 59.9 53 5.9 42.6
09:25 1020 30.12 849 25.07 16.2 61.2 53 6.6 43.9
09:30 1020 30.12 849 25.07 16.7 62 50 6.2 43.2
09:35 1020 30.12 849 25.07 17 62.6 51 6.9 44.3
09:40 1020 30.12 849 25.07 17.1 62.8 49 6.5 43.6
09:45 1020 30.12 849 25.07 16.6 61.9 49 6 42.8
09:50 1020 30.12 849 25.07 16.6 61.9 50 6.2 43.2
09:55 1020 30.12 849 25.07 16.9 62.4 48 5.9 42.7
10:00 1020 30.12 849 25.07 17.4 63.2 48 6.2 43.2
10:05 1020 30.12 849 25.07 16.9 62.3 48 5.9 42.7
10:10 1020 30.12 849 25.07 17.1 62.8 48 6 42.8
10:15 1020 30.12 849 25.07 18 64.4 45 6.1 43
10:20 1020 30.12 849 25.07 18.4 65.1 44 6 42.9
10:25 1020 30.12 849 25.07 19 66.1 44 6.4 43.6
10:30 1020 30.12 849 25.07 19.2 66.6 42 6 42.8
10:35 1020 30.12 849 25.07 19.5 67.2 42 6.4 43.6
10:40 1020 30.12 849 25.07 18.8 65.8 44 6.3 43.3
10:45 1020 30.12 849 25.07 18.7 65.6 43 6.1 42.9
10:50 1020 30.12 849 25.07 19.2 66.5 41 5.9 42.6
10:55 1020 30.12 849 25.07 19.7 67.5 40 5.9 42.6
11:00 1020 30.12 849 25.07 20.2 68.4 38 5.7 42.3
11:05 1020 30.12 849 25.07 20.6 69.1 38 5.8 42.4
11:10 1020 30.12 849 25.07 21.2 70.2 36 5.9 42.7
11:15 1020 30.12 849 25.07 21 69.9 36 5.7 42.2
11:20 1020 30.12 849 25.07 21.2 70.1 36 5.9 42.5
11:25 1020 30.12 849 25.07 21.5 70.6 34 5.1 41.2
11:30 1020 30.12 849 25.07 20.8 69.4 36 5.3 41.6
11:35 1020 30.12 849 25.07 20.6 69.1 35 4.7 40.5
11:40 1020 30.12 849 25.07 21.2 70.1 34 5 41
11:45 1019 30.09 849 25.07 22.2 72 32 5 40.9
11:50 1019 30.09 849 25.07 22.9 73.1 31 5.2 41.3
11:55 1019 30.09 849 25.07 23.1 73.6 31 5.2 41.4
12:00 1019 30.09 849 25.07 23 73.4 31 5.3 41.5
12:05 1019 30.09 849 25.07 22.4 72.2 33 5.3 41.6
12:10 1019 30.09 849 25.07 22.7 72.9 31 5.1 41.2
12:15 1019 30.09 849 25.07 22.2 71.9 33 5.2 41.4
12:20 1019 30.09 848 25.04 22.8 73.1 31 5 41
12:25 1019 30.09 848 25.04 23.1 73.6 31 5.2 41.3
12:30 1019 30.09 848 25.04 23 73.5 32 5.6 42.1
12:35 1019 30.09 848 25.04 23.6 74.5 29 4.8 40.6
12:40 1019 30.09 848 25.04 24.1 75.4 29 5.3 41.6
12:45 1019 30.09 848 25.04 23.9 75.1 30 5.5 41.9
12:50 1019 30.09 848 25.04 24.2 75.6 28 4.8 40.7
12:55 1019 30.09 848 25.04 23.6 74.4 30 5.1 41.2
13:00 1019 30.09 848 25.04 23.1 73.5 30 4.7 40.5
13:05 1019 30.09 848 25.04 23.3 74 29 4.3 39.7
13:10 1019 30.09 848 25.04 24.1 75.4 29 5 41
13:15 1019 30.09 848 25.04 23 73.4 29 4 39.2
13:20 1019 30.09 848 25.04 23.8 74.8 27 3.8 38.9
13:25 1019 30.09 848 25.04 24.6 76.2 27 4.7 40.4
13:30 1019 30.09 848 25.04 24.5 76.1 26 3.9 39
13:35 1019 30.09 848 25.04 24.7 76.4 25 3.7 38.7
13:40 1019 30.09 848 25.04 24.4 75.9 26 4.1 39.4
13:45 1019 30.09 848 25.04 24.9 76.7 25 3.8 38.9
13:50 1019 30.09 848 25.04 24.6 76.3 25 3.7 38.6
13:55 1019 30.09 848 25.04 24.6 76.4 25 3.4 38
14:00 1019 30.09 848 25.04 25 77.1 25 3.8 38.9
14:05 1019 30.09 848 25.04 25.3 77.6 24 3.8 38.9
14:10 1019 30.09 848 25.04 24.2 75.5 27 4.2 39.6
14:15 1019 30.09 848 25.04 23.8 74.8 27 4 39.1
14:20 1019 30.09 848 25.04 24 75.3 27 4.1 39.4
14:25 1019 30.09 848 25.04 23.9 75 27 3.8 38.9
14:30 1019 30.09 848 25.04 24.9 76.8 25 3.9 39.1
14:35 1019 30.09 848 25.04 25.6 78.1 24 3.9 39.1
14:40 1019 30.09 848 25.04 25.7 78.2 24 4.1 39.4
14:45 1019 30.09 848 25.04 25.5 77.8 25 4.1 39.4
14:50 1019 30.09 848 25.04 25.4 77.7 24 3.9 39
14:55 1018 30.06 848 25.04 24.8 76.6 26 4.2 39.6
15:00 1018 30.06 848 25.04 24.9 76.7 25 3.9 38.9
15:05 1018 30.06 848 25.04 25.5 77.9 24 3.5 38.3
15:10 1018 30.06 848 25.04 25.1 77.1 25 4 39.1
15:15 1018 30.06 848 25.04 24.9 76.7 24 3.4 38.1
15:20 1018 30.06 848 25.04 24.6 76.2 27 4.4 39.9
15:25 1018 30.06 848 25.04 24.6 76.2 26 4.1 39.4
15:30 1018 30.06 848 25.04 24.6 76.3 25 3.7 38.7
15:35 1018 30.06 847 25.01 25 77 24 3.5 38.4
15:40 1018 30.06 847 25.01 25.4 77.6 25 4.2 39.6
15:45 1018 30.06 847 25.01 24.8 76.6 26 4 39.2
15:50 1018 30.06 847 25.01 24.1 75.5 27 4 39.2
15:55 1018 30.06 847 25.01 24.2 75.5 27 4.2 39.6
16:00 1018 30.06 847 25.01 24.7 76.5 26 3.9 39
16:05 1018 30.06 847 25.01 25.3 77.5 25 4.1 39.5
16:10 1018 30.06 847 25.01 25.1 77.2 26 4.6 40.3
16:15 1018 30.06 847 25.01 25 77 26 4.4 39.9
16:20 1018 30.06 847 25.01 24.8 76.7 26 4.2 39.6
16:25 1018 30.06 847 25.01 24.7 76.4 27 4.4 40
16:30 1018 30.06 847 25.01 24.1 75.4 28 4.5 40.1
16:35 1018 30.06 847 25.01 24.5 76 25 3.4 38.1
16:40 1018 30.06 847 25.01 25.3 77.6 25 4 39.1
16:45 1018 30.06 847 25.01 25.5 77.9 25 4.2 39.5
16:50 1018 30.06 847 25.01 25.5 77.9 24 3.8 38.9
16:55 1018 30.06 847 25.01 25.2 77.4 25 4 39.1
17:00 1018 30.06 847 25.01 25.6 78.1 24 3.5 38.4
17:05 1018 30.06 847 25.01 25.7 78.3 24 3.9 39.1
17:10 1018 30.06 847 25.01 25.7 78.2 24 3.7 38.6
17:15 1018 30.06 847 25.01 25.6 78.1 24 3.9 39
17:20 1018 30.06 847 25.01 25.4 77.7 24 3.6 38.5
17:25 1018 30.06 847 25.01 25.4 77.8 24 3.8 38.9
17:30 1018 30.06 847 25.01 25 77 25 3.6 38.6
17:35 1018 30.06 847 25.01 25 76.9 24 3.4 38.1
17:40 1018 30.06 847 25.01 24.8 76.6 25 3.7 38.6
17:45 1018 30.06 847 25.01 24.9 76.9 24 3.5 38.3
17:50 1018 30.06 847 25.01 25 77 24 3.4 38
17:55 1018 30.06 847 25.01 24.9 76.9 25 3.7 38.7
18:00 1018 30.06 847 25.01 25 77 24 3.1 37.5
18:05 1018 30.06 847 25.01 25.1 77.1 23 2.9 37.1
18:10 1018 30.06 848 25.04 25 77 24 3.2 37.8
18:15 1018 30.06 848 25.04 25.3 77.6 23 2.8 37
18:20 1018 30.06 848 25.04 25.3 77.5 23 2.9 37.2
18:25 1018 30.06 848 25.04 24.6 76.3 24 3.2 37.8
18:30 1018 30.06 848 25.04 24.3 75.7 24 2.8 37
18:35 1018 30.06 848 25.04 24.2 75.5 25 2.9 37.2
18:40 1019 30.09 848 25.04 24 75.2 25 3.1 37.5
18:45 1019 30.09 848 25.04 23.8 74.8 25 2.9 37.2
18:50 1019 30.09 848 25.04 23.6 74.5 26 3.1 37.6
18:55 1019 30.09 848 25.04 23.4 74.1 26 3.3 37.9
19:00 1019 30.09 848 25.04 23.3 73.9 27 3.5 38.3
19:05 1019 30.09 848 25.04 23.2 73.8 28 3.7 38.7
19:10 1019 30.09 848 25.04 23 73.4 29 4 39.3
19:15 1019 30.09 848 25.04 22.8 73.1 30 4.4 39.9
19:20 1019 30.09 848 25.04 22.6 72.7 29 3.8 38.9
19:25 1019 30.09 848 25.04 22.4 72.2 30 4 39.2
19:30 1019 30.09 848 25.04 22.2 71.9 30 4 39.3
19:35 1019 30.09 848 25.04 21.9 71.5 30 3.9 39
19:40 1019 30.09 848 25.04 21.8 71.3 30 3.7 38.6
19:45 1019 30.09 848 25.04 21.6 70.9 31 4 39.2
19:50 1019 30.09 849 25.07 21.4 70.5 30 3.3 37.9
19:55 1019 30.09 849 25.07 21.2 70.1 29 2.8 37
20:00 1019 30.09 849 25.07 21 69.7 30 2.9 37.3
20:05 1020 30.12 849 25.07 20.7 69.3 30 2.6 36.7
20:10 1020 30.12 849 25.07 20.5 68.9 30 2.6 36.6
20:15 1020 30.12 849 25.07 20.3 68.5 30 2.5 36.5
20:20 1020 30.12 849 25.07 20.1 68.1 30 2.2 35.9
20:25 1020 30.12 849 25.07 19.9 67.8 30 2.1 35.8
20:30 1020 30.12 849 25.07 19.8 67.7 30 2.1 35.7
20:35 1020 30.12 849 25.07 19.6 67.3 31 2.1 35.8
20:40 1020 30.12 850 25.1 19.4 66.9 31 2.2 35.9
20:45 1020 30.12 850 25.1 19.2 66.6 32 2.1 35.8
20:50 1020 30.12 850 25.1 18.9 66 32 2.1 35.7
20:55 1021 30.15 850 25.1 18.3 64.9 34 2.3 36.2
21:00 1021 30.15 850 25.1 17.3 63.1 36 2 35.6
21:05 1021 30.15 850 25.1 16.9 62.4 36 1.9 35.5
21:10 1021 30.15 850 25.1 16.9 62.4 37 2.3 36.1
21:15 1021 30.15 850 25.1 17.1 62.8 36 1.9 35.4
21:20 1021 30.15 850 25.1 17.4 63.4 34 1.5 34.7
21:25 1021 30.15 850 25.1 17.8 64 33 1.6 34.9
21:30 1021 30.15 850 25.1 17.8 64.1 33 1.5 34.6
21:35 1021 30.15 850 25.1 17.9 64.3 32 0.9 33.7
21:40 1021 30.15 850 25.1 17.9 64.3 32 1 33.8
21:45 1021 30.15 851 25.13 17.8 64 30 0.2 32.4
21:50 1021 30.15 851 25.13 17.7 63.9 30 0.1 32.2
21:55 1021 30.15 851 25.13 17.6 63.7 30 -0.2 31.6
22:00 1021 30.15 851 25.13 17.6 63.6 29 -0.8 30.6
22:05 1022 30.18 851 25.13 17.5 63.5 28 -1.2 29.8
22:10 1022 30.18 851 25.13 17.3 63.2 27 -1.7 29
22:15 1022 30.18 851 25.13 17.2 63 27 -1.7 29
22:20 1022 30.18 851 25.13 17.1 62.8 27 -2.2 28.1
22:25 1022 30.18 851 25.13 16.9 62.4 26 -2.8 26.9
22:30 1022 30.18 851 25.13 16.9 62.4 25 -3.3 26.1
22:35 1022 30.18 851 25.13 17.1 62.7 23 -3.9 25
22:40 1022 30.18 851 25.13 17.3 63.1 22 -4.7 23.6
22:45 1022 30.18 851 25.13 17.5 63.6 21 -5.1 22.9
22:50 1022 30.18 851 25.13 17.6 63.7 20 -5.4 22.3
22:55 1022 30.18 851 25.13 17.8 64 20 -5.6 22
23:00 1022 30.18 851 25.13 17.8 64 21 -4.8 23.3
23:05 1022 30.18 851 25.13 17.8 64 21 -4.8 23.3
23:10 1022 30.18 851 25.13 17.7 63.9 21 -4.8 23.4
23:15 1022 30.18 851 25.13 17.6 63.7 21 -5 23
23:20 1022 30.18 851 25.13 17.4 63.3 21 -5 23.1
23:25 1022 30.18 851 25.13 17.3 63.1 22 -4.4 24
23:30 1022 30.18 851 25.13 17.2 62.9 21 -5 23.1
23:35 1022 30.18 851 25.13 16.5 61.8 23 -4.5 23.9
23:40 1022 30.18 851 25.13 15.5 59.9 27 -3.6 25.6
23:45 1022 30.18 851 25.13 14.7 58.4 33 -1.4 29.5
23:50 1022 30.18 851 25.13 14.5 58.1 32 -1.8 28.8
23:55 1022 30.18 851 25.13 14.3 57.8 35 -0.9 30.4
24:00 1022 30.18 852 25.16 14.6 58.4 29 -3.2 26.2